Time;durP1;ratioP1;P1;durP2;ratioP2;P2;SDS_P1;SDS_P2;PMS_P1;PMS_P2;Temp;Humidity;BMP_temperature;BMP_pressure;BME280_temperature;BME280_humidity;BME280_pressure;Samples;Min_cycle;Max_cycle;Signal;HPM_P1;HPM_P2
2022/12/25 00:00:30;;;;;;;;;;;;;;;8.42;100.00;101358.38;5027543;28;19975;-77
2022/12/25 00:02:55;;;;;;;;;;;;;;;8.42;100.00;101367.94;5027866;28;20170;-78
2022/12/25 00:05:20;;;;;;;;;;;;;;;8.42;100.00;101371.41;5030624;28;19925;-78
2022/12/25 00:07:45;;;;;;;;;;;;;;;8.43;100.00;101364.44;5026748;28;20191;-78
2022/12/25 00:10:11;;;;;;;;;;;;;;;8.43;100.00;101364.44;5030449;28;20266;-77
2022/12/25 00:12:36;;;;;;;;;;;;;;;8.43;100.00;101367.91;5028694;28;20219;-77
2022/12/25 00:15:02;;;;;;;;;;;;;;;8.43;100.00;101367.06;5025839;28;20192;-78
2022/12/25 00:17:27;;;;;;;;;;;;;;;8.42;100.00;101355.75;5030387;28;19928;-78
2022/12/25 00:19:52;;;;;;;;;;;;;;;8.43;100.00;101351.38;5027934;28;19930;-78
2022/12/25 00:22:18;;;;;;;;;;;;;;;8.43;100.00;101348.78;5027765;28;20000;-78
2022/12/25 00:24:43;;;;;;;;;;;;;;;8.43;100.00;101354.00;5027913;28;19921;-77
2022/12/25 00:27:08;;;;;;;;;;;;;;;8.44;100.00;101353.09;5028116;28;19925;-78
2022/12/25 00:29:33;;;;;;;;;;;;;;;8.44;100.00;101353.09;5040825;28;19928;-77
2022/12/25 00:31:59;;;;;;;;;;;;;;;8.45;100.00;101360.03;5038961;28;19932;-77
2022/12/25 00:34:24;;;;;;;;;;;;;;;8.44;100.00;101364.41;5036308;28;19953;-77
2022/12/25 00:36:50;;;;;;;;;;;;;;;8.45;100.00;101355.66;5018245;28;19943;-77
2022/12/25 00:39:15;;;;;;;;;;;;;;;8.45;100.00;101363.50;5020982;28;20149;-78
2022/12/25 00:44:24;;;;;;;;;;;;;;;8.47;100.00;101363.47;5018095;28;19965;-77
2022/12/25 00:46:50;;;;;;;;;;;;;;;8.46;100.00;101367.00;5029309;28;19929;-78
2022/12/25 00:49:15;;;;;;;;;;;;;;;8.47;100.00;101362.63;5039219;28;19909;-78
2022/12/25 00:51:40;;;;;;;;;;;;;;;8.47;100.00;101365.22;5023512;28;19921;-78
2022/12/25 00:54:06;;;;;;;;;;;;;;;8.48;100.00;101366.94;5018534;28;20220;-78
2022/12/25 00:56:31;;;;;;;;;;;;;;;8.48;100.00;101372.16;5025849;28;19952;-78
2022/12/25 00:58:56;;;;;;;;;;;;;;;8.47;100.00;101366.06;5021874;28;19922;-78
2022/12/25 01:01:22;;;;;;;;;;;;;;;8.48;100.00;101369.53;5047568;28;19920;-77
2022/12/25 01:03:47;;;;;;;;;;;;;;;8.49;100.00;101371.28;5037130;28;20108;-78
2022/12/25 01:06:12;;;;;;;;;;;;;;;8.48;100.00;101373.03;5031942;28;19968;-77
2022/12/25 01:10:20;;;;;;;;;;;;;;;8.48;100.00;101386.09;5018316;28;19913;-78
2022/12/25 01:11:24;;;;;;;;;;;;;;;8.48;100.00;101382.59;5024900;28;20108;-78
2022/12/25 01:13:50;;;;;;;;;;;;;;;8.48;100.00;101380.84;5037872;28;19921;-77
2022/12/25 01:16:15;;;;;;;;;;;;;;;8.49;100.00;101381.72;5033988;28;19932;-77
2022/12/25 01:18:42;;;;;;;;;;;;;;;8.50;100.00;101378.22;5017750;28;19925;-78
2022/12/25 01:21:07;;;;;;;;;;;;;;;8.50;100.00;101375.59;5019919;28;19929;-77
2022/12/25 01:23:33;;;;;;;;;;;;;;;8.51;100.00;101372.94;5018064;28;19917;-78
2022/12/25 01:26:02;;;;;;;;;;;;;;;8.50;100.00;101360.78;5018795;28;19918;-78
2022/12/25 01:28:27;;;;;;;;;;;;;;;8.51;100.00;101361.66;5022012;28;19920;-78
2022/12/25 01:30:53;;;;;;;;;;;;;;;8.52;100.00;101365.97;5052102;28;19912;-78
2022/12/25 01:33:18;;;;;;;;;;;;;;;8.51;100.00;101362.50;5037903;28;19925;-78
2022/12/25 01:35:43;;;;;;;;;;;;;;;8.52;100.00;101364.22;5037776;28;19913;-78
2022/12/25 01:38:08;;;;;;;;;;;;;;;8.52;100.00;101372.06;5024563;28;19991;-78
2022/12/25 01:40:33;;;;;;;;;;;;;;;8.52;100.00;101379.88;5017900;28;19960;-78
2022/12/25 01:42:59;;;;;;;;;;;;;;;8.53;100.00;101376.41;5018589;28;19925;-78
2022/12/25 01:45:43;;;;;;;;;;;;;;;8.53;100.00;101371.19;5018264;28;20124;-78
2022/12/25 01:48:11;;;;;;;;;;;;;;;8.54;100.00;101372.88;5029822;28;19921;-77
2022/12/25 01:50:39;;;;;;;;;;;;;;;8.53;100.00;101368.56;5037852;28;19932;-77
2022/12/25 01:53:04;;;;;;;;;;;;;;;8.53;100.00;101371.19;5028248;28;19984;-78
2022/12/25 01:55:31;;;;;;;;;;;;;;;8.53;100.00;101372.91;5016940;28;19918;-78
2022/12/25 01:57:56;;;;;;;;;;;;;;;8.53;100.00;101379.00;5025358;28;20106;-77
2022/12/25 02:03:25;;;;;;;;;;;;;;;8.53;100.00;101381.63;5026526;28;20134;-78
2022/12/25 02:05:50;;;;;;;;;;;;;;;8.54;100.00;101378.09;5021858;28;20225;-77
2022/12/25 02:08:17;;;;;;;;;;;;;;;8.54;100.00;101385.94;5029969;28;19948;-78
2022/12/25 02:10:43;;;;;;;;;;;;;;;8.55;100.00;101381.56;5041654;28;20366;-77
2022/12/25 02:13:09;;;;;;;;;;;;;;;8.55;100.00;101374.59;5041069;28;20136;-78
2022/12/25 02:15:54;;;;;;;;;;;;;;;8.54;100.00;101370.25;5041862;28;19917;-78
2022/12/25 02:18:39;;;;;;;;;;;;;;;8.56;100.00;101367.63;5034254;28;19917;-78
2022/12/25 02:21:16;;;;;;;;;;;;;;;8.56;100.00;101376.31;5017968;28;20188;-78
2022/12/25 02:23:42;;;;;;;;;;;;;;;8.56;100.00;101371.06;5031444;28;20228;-77
2022/12/25 02:26:10;;;;;;;;;;;;;;;8.57;100.00;101369.34;5041527;28;19928;-78
2022/12/25 02:28:35;;;;;;;;;;;;;;;8.57;100.00;101357.16;5035642;28;19963;-77
2022/12/25 02:31:07;;;;;;;;;;;;;;;8.57;100.00;101358.91;5059138;28;19983;-78
2022/12/25 02:36:21;;;;;;;;;;;;;;;8.58;100.00;101350.16;5037271;28;19920;-78
2022/12/25 02:41:38;;;;;;;;;;;;;;;8.58;100.00;101337.09;5041397;28;20243;-77
2022/12/25 03:11:29;;;;;;;;;;;;;;;8.61;100.00;101290.91;5026781;28;19967;-78
2022/12/25 03:11:46;;;;;;;;;;;;;;;8.63;100.00;101303.91;5040276;28;20128;-78
2022/12/25 03:16:57;;;;;;;;;;;;;;;8.63;100.00;101302.16;5020700;28;20283;-78
2022/12/25 03:28:01;;;;;;;;;;;;;;;8.64;100.00;101303.00;5034946;28;19916;-78
2022/12/25 03:33:28;;;;;;;;;;;;;;;8.65;100.00;101302.97;5040231;28;20143;-77
2022/12/25 03:36:04;;;;;;;;;;;;;;;8.65;100.00;101305.56;5033457;28;19921;-78
2022/12/25 04:36:30;;;;;;;;;;;;;;;8.70;100.00;101296.78;5035710;28;19932;-78
2022/12/25 04:38:56;;;;;;;;;;;;;;;8.70;100.00;101287.19;5039036;28;19920;-78
2022/12/25 04:41:21;;;;;;;;;;;;;;;8.70;100.00;101294.19;5025072;28;20197;-78
2022/12/25 04:43:46;;;;;;;;;;;;;;;8.70;100.00;101284.59;5019073;28;19985;-78
2022/12/25 04:46:11;;;;;;;;;;;;;;;8.69;100.00;101290.69;5037355;28;20144;-77
2022/12/25 04:48:37;;;;;;;;;;;;;;;8.69;100.00;101276.78;5038595;28;19917;-77
2022/12/25 04:51:15;;;;;;;;;;;;;;;8.69;100.00;101267.19;5029210;28;20129;-78
2022/12/25 04:53:41;;;;;;;;;;;;;;;8.69;100.00;101261.97;5018869;28;19916;-78
2022/12/25 04:56:07;;;;;;;;;;;;;;;8.71;100.00;101267.16;5027822;28;19987;-78
2022/12/25 04:58:32;;;;;;;;;;;;;;;8.70;100.00;101255.00;5030707;28;19976;-77
2022/12/25 05:00:58;;;;;;;;;;;;;;;8.70;100.00;101255.00;5044294;28;20164;-78
2022/12/25 05:03:24;;;;;;;;;;;;;;;8.69;100.00;101251.53;5018842;28;19921;-78
2022/12/25 05:05:49;;;;;;;;;;;;;;;8.70;100.00;101255.88;5021264;28;19933;-78
2022/12/25 05:08:14;;;;;;;;;;;;;;;8.70;100.00;101255.00;5037254;28;19971;-78
2022/12/25 05:10:39;;;;;;;;;;;;;;;8.70;100.00;101247.19;5037855;28;19987;-78
2022/12/25 05:13:05;;;;;;;;;;;;;;;8.69;100.00;101248.06;5037524;28;19936;-78
2022/12/25 05:15:30;;;;;;;;;;;;;;;8.69;100.00;101241.06;5038449;28;19991;-78
2022/12/25 05:17:55;;;;;;;;;;;;;;;8.70;100.00;101244.56;5020520;28;19925;-78
2022/12/25 05:20:20;;;;;;;;;;;;;;;8.68;100.00;101247.22;5018523;28;19957;-78
2022/12/25 05:22:46;;;;;;;;;;;;;;;8.69;100.00;101248.91;5018631;28;19944;-77
2022/12/25 05:25:11;;;;;;;;;;;;;;;8.69;100.00;101254.13;5018379;28;19989;-77
2022/12/25 05:27:36;;;;;;;;;;;;;;;8.68;100.00;101242.00;5018370;28;19932;-78
2022/12/25 05:30:02;;;;;;;;;;;;;;;8.69;100.00;101250.69;5039896;28;19916;-77
2022/12/25 05:32:27;;;;;;;;;;;;;;;8.68;100.00;101248.94;5036037;28;19929;-78
2022/12/25 05:34:53;;;;;;;;;;;;;;;8.69;100.00;101245.44;5018544;28;20205;-78
2022/12/25 05:37:18;;;;;;;;;;;;;;;8.68;100.00;101248.94;5027834;28;20190;-78
2022/12/25 05:39:43;;;;;;;;;;;;;;;8.68;100.00;101260.28;5037501;28;20156;-78
2022/12/25 05:42:08;;;;;;;;;;;;;;;8.67;100.00;101262.91;5033390;28;19909;-78
2022/12/25 05:44:34;;;;;;;;;;;;;;;8.65;100.00;101253.34;5017834;28;19925;-78
2022/12/25 05:46:59;;;;;;;;;;;;;;;8.65;100.00;101250.75;5018889;28;19913;-78
2022/12/25 05:49:24;;;;;;;;;;;;;;;8.65;100.00;101250.75;5036781;28;19920;-78
2022/12/25 05:51:49;;;;;;;;;;;;;;;8.64;100.00;101248.16;5036659;28;19948;-77
2022/12/25 05:54:15;;;;;;;;;;;;;;;8.64;100.00;101238.59;5036287;28;19921;-78
2022/12/25 05:56:41;;;;;;;;;;;;;;;8.66;100.00;101238.56;5037705;28;20001;-78
2022/12/25 05:59:06;;;;;;;;;;;;;;;8.64;100.00;101238.59;5024001;28;19932;-78
2022/12/25 06:01:31;;;;;;;;;;;;;;;8.64;100.00;101229.91;5057809;28;19931;-78
2022/12/25 06:03:56;;;;;;;;;;;;;;;8.64;100.00;101227.28;5028848;28;19922;-78
2022/12/25 06:06:22;;;;;;;;;;;;;;;8.63;100.00;101229.03;5018074;28;19968;-78
2022/12/25 06:08:47;;;;;;;;;;;;;;;8.64;100.00;101232.50;5018983;28;19917;-78
2022/12/25 06:11:13;;;;;;;;;;;;;;;8.64;100.00;101219.44;5016990;28;20212;-77
2022/12/25 06:13:38;;;;;;;;;;;;;;;8.62;100.00;101224.75;5026929;28;19971;-78
2022/12/25 06:16:05;;;;;;;;;;;;;;;8.62;100.00;101227.34;5037973;28;20123;-78
2022/12/25 06:18:30;;;;;;;;;;;;;;;8.61;100.00;101217.78;5036873;28;19925;-78
2022/12/25 06:20:55;;;;;;;;;;;;;;;8.62;100.00;101216.03;5037681;28;19921;-78
2022/12/25 06:23:21;;;;;;;;;;;;;;;8.61;100.00;101207.34;5037744;28;19925;-78
2022/12/25 06:25:46;;;;;;;;;;;;;;;8.62;100.00;101203.84;5036554;28;19968;-78
2022/12/25 06:28:11;;;;;;;;;;;;;;;8.62;100.00;101210.81;5027284;28;19917;-78
2022/12/25 06:30:36;;;;;;;;;;;;;;;8.62;100.00;101208.19;5048201;28;19943;-78
2022/12/25 06:33:02;;;;;;;;;;;;;;;8.62;100.00;101216.91;5030118;28;20099;-77
2022/12/25 06:35:27;;;;;;;;;;;;;;;8.62;100.00;101203.84;5032714;28;19925;-78
2022/12/25 06:37:52;;;;;;;;;;;;;;;8.62;100.00;101197.75;5030615;28;19925;-78
2022/12/25 06:40:18;;;;;;;;;;;;;;;8.61;100.00;101196.91;5033325;28;19944;-78
2022/12/25 06:42:43;;;;;;;;;;;;;;;8.62;100.00;101195.13;5027360;28;19921;-78
2022/12/25 06:45:08;;;;;;;;;;;;;;;8.62;100.00;101196.03;5020558;28;19917;-78
2022/12/25 06:47:34;;;;;;;;;;;;;;;8.62;100.00;101196.03;5034206;28;19917;-78
2022/12/25 06:49:59;;;;;;;;;;;;;;;8.64;100.00;101193.34;5022886;28;19921;-78
2022/12/25 06:52:24;;;;;;;;;;;;;;;8.63;100.00;101192.50;5051062;28;19952;-77
2022/12/25 06:54:50;;;;;;;;;;;;;;;8.63;100.00;101182.06;5040853;28;20289;-78
2022/12/25 06:57:16;;;;;;;;;;;;;;;8.64;100.00;101180.28;5040560;28;19925;-78
2022/12/25 06:59:41;;;;;;;;;;;;;;;8.64;100.00;101182.91;5024904;28;20156;-78
2022/12/25 07:02:13;;;;;;;;;;;;;;;8.63;100.00;101184.66;5042955;28;20232;-78
2022/12/25 07:04:41;;;;;;;;;;;;;;;8.63;100.00;101182.06;5028658;28;19921;-77
2022/12/25 07:07:07;;;;;;;;;;;;;;;8.64;100.00;101168.13;5021277;28;19921;-77
2022/12/25 07:09:32;;;;;;;;;;;;;;;8.64;100.00;101181.16;5033854;28;19964;-78
2022/12/25 07:12:02;;;;;;;;;;;;;;;8.64;100.00;101190.72;5041100;28;19925;-78
2022/12/25 07:14:27;;;;;;;;;;;;;;;8.65;100.00;101187.22;5039864;28;19921;-78
2022/12/25 07:16:52;;;;;;;;;;;;;;;8.63;100.00;101182.06;5040398;28;20090;-78
2022/12/25 07:19:18;;;;;;;;;;;;;;;8.64;100.00;101185.50;5031805;28;20216;-78
2022/12/25 07:21:43;;;;;;;;;;;;;;;8.65;100.00;101187.22;5020706;28;20235;-78
2022/12/25 07:24:09;;;;;;;;;;;;;;;8.64;100.00;101182.91;5019700;28;19925;-77
2022/12/25 07:26:34;;;;;;;;;;;;;;;8.64;100.00;101196.84;5020074;28;19927;-77
2022/12/25 07:29:00;;;;;;;;;;;;;;;8.64;100.00;101191.59;5025800;28;19921;-78
2022/12/25 07:31:25;;;;;;;;;;;;;;;8.65;100.00;101210.72;5060062;28;19913;-78
2022/12/25 07:33:53;;;;;;;;;;;;;;;8.65;100.00;101214.19;5043270;28;19936;-78
2022/12/25 07:36:19;;;;;;;;;;;;;;;8.64;100.00;101204.66;5019192;28;19924;-78
2022/12/25 07:38:47;;;;;;;;;;;;;;;8.66;100.00;101215.06;5021788;28;19925;-77
2022/12/25 07:41:12;;;;;;;;;;;;;;;8.67;100.00;101208.09;5021877;28;19996;-78
2022/12/25 07:43:38;;;;;;;;;;;;;;;8.66;100.00;101209.84;5029235;28;19929;-78
2022/12/25 07:46:03;;;;;;;;;;;;;;;8.66;100.00;101222.91;5038355;28;19940;-78
2022/12/25 07:48:29;;;;;;;;;;;;;;;8.66;100.00;101220.28;5039817;28;20043;-78
2022/12/25 07:50:55;;;;;;;;;;;;;;;8.66;100.00;101225.50;5024805;28;20000;-77
2022/12/25 07:53:20;;;;;;;;;;;;;;;8.66;100.00;101222.91;5021884;28;20140;-78
2022/12/25 07:55:46;;;;;;;;;;;;;;;8.66;100.00;101217.69;5028707;28;19932;-78
2022/12/25 07:58:11;;;;;;;;;;;;;;;8.68;100.00;101233.28;5030569;28;19918;-78
2022/12/25 08:00:36;;;;;;;;;;;;;;;8.66;100.00;101220.28;5030102;28;19996;-78
2022/12/25 08:03:01;;;;;;;;;;;;;;;8.67;100.00;101234.19;5024391;28;19921;-77
2022/12/25 08:05:27;;;;;;;;;;;;;;;8.66;100.00;101230.75;5030831;28;19917;-78
2022/12/25 08:07:53;;;;;;;;;;;;;;;8.67;100.00;101226.38;5027918;28;19952;-78
2022/12/25 08:10:18;;;;;;;;;;;;;;;8.66;100.00;101228.13;5032812;28;19928;-78
2022/12/25 08:12:44;;;;;;;;;;;;;;;8.65;100.00;101235.06;5035219;28;19966;-77
2022/12/25 08:15:09;;;;;;;;;;;;;;;8.65;100.00;101227.25;5034496;28;19964;-78
2022/12/25 08:17:34;;;;;;;;;;;;;;;8.67;100.00;101221.16;5031074;28;19997;-78
2022/12/25 08:19:59;;;;;;;;;;;;;;;8.67;100.00;101224.59;5024288;28;19991;-78
2022/12/25 08:22:25;;;;;;;;;;;;;;;8.67;100.00;101221.16;5020814;28;19918;-78
2022/12/25 08:24:50;;;;;;;;;;;;;;;8.66;100.00;101207.25;5032604;28;19920;-78
2022/12/25 08:27:15;;;;;;;;;;;;;;;8.68;100.00;101212.41;5025079;28;19960;-78
2022/12/25 08:29:42;;;;;;;;;;;;;;;8.67;100.00;101208.94;5031644;28;19925;-78
2022/12/25 08:32:07;;;;;;;;;;;;;;;8.67;100.00;101193.28;5037034;28;19913;-78
2022/12/25 08:34:32;;;;;;;;;;;;;;;8.68;100.00;101202.81;5034345;28;19956;-78
2022/12/25 08:36:58;;;;;;;;;;;;;;;8.69;100.00;101203.69;5028644;28;19956;-78
2022/12/25 08:39:23;;;;;;;;;;;;;;;8.68;100.00;101210.66;5020532;28;19933;-78
2022/12/25 08:41:48;;;;;;;;;;;;;;;8.69;100.00;101219.34;5024836;28;20159;-78
2022/12/25 08:44:14;;;;;;;;;;;;;;;8.70;100.00;101216.69;5018977;28;19996;-78
2022/12/25 08:46:39;;;;;;;;;;;;;;;8.70;100.00;101208.00;5024001;28;19925;-78
2022/12/25 08:49:04;;;;;;;;;;;;;;;8.71;100.00;101204.50;5015783;28;19920;-78
2022/12/25 08:51:29;;;;;;;;;;;;;;;8.71;100.00;101214.94;5017079;28;19921;-77
2022/12/25 08:53:57;;;;;;;;;;;;;;;8.71;100.00;101215.78;5036442;28;19943;-78
2022/12/25 08:56:22;;;;;;;;;;;;;;;8.72;100.00;101232.31;5037425;28;19909;-78
2022/12/25 08:58:48;;;;;;;;;;;;;;;8.72;100.00;101225.34;5020108;28;19929;-78
2022/12/25 09:01:13;;;;;;;;;;;;;;;8.72;100.00;101227.09;5040934;28;20189;-77
2022/12/25 09:03:38;;;;;;;;;;;;;;;8.71;100.00;101233.22;5021217;28;19921;-77
2022/12/25 09:06:05;;;;;;;;;;;;;;;8.70;100.00;101232.38;5017249;28;20044;-78
2022/12/25 09:08:31;;;;;;;;;;;;;;;8.71;100.00;101236.66;5029694;28;19912;-78
2022/12/25 09:11:00;;;;;;;;;;;;;;;8.71;100.00;101247.13;5036607;28;20339;-78
2022/12/25 09:13:25;;;;;;;;;;;;;;;8.71;100.00;101257.56;5025742;28;20228;-78
2022/12/25 09:15:50;;;;;;;;;;;;;;;8.71;100.00;101254.09;5015784;28;20011;-78
2022/12/25 09:18:15;;;;;;;;;;;;;;;8.71;100.00;101243.66;5017273;28;19975;-78
2022/12/25 09:20:41;;;;;;;;;;;;;;;8.71;100.00;101241.03;5018057;28;19996;-78
2022/12/25 09:23:06;;;;;;;;;;;;;;;8.71;100.00;101247.13;5022758;28;19932;-78
2022/12/25 09:25:31;;;;;;;;;;;;;;;8.71;100.00;101236.66;5037721;28;20253;-78
2022/12/25 09:27:57;;;;;;;;;;;;;;;8.71;100.00;101246.25;5035750;28;19933;-78
2022/12/25 09:30:22;;;;;;;;;;;;;;;8.71;100.00;101238.44;5029437;28;19925;-78
2022/12/25 09:32:47;;;;;;;;;;;;;;;8.72;100.00;101232.31;5016954;28;19917;-78
2022/12/25 09:35:16;;;;;;;;;;;;;;;8.71;100.00;101225.38;5034773;28;19929;-78
2022/12/25 09:37:41;;;;;;;;;;;;;;;8.72;100.00;101221.88;5027189;28;19953;-78
2022/12/25 09:40:07;;;;;;;;;;;;;;;8.71;100.00;101223.63;5036538;28;19917;-78
2022/12/25 09:42:33;;;;;;;;;;;;;;;8.72;100.00;101227.09;5036292;28;19949;-77
2022/12/25 09:45:03;;;;;;;;;;;;;;;8.72;100.00;101214.03;5017725;28;19932;-78
2022/12/25 09:47:30;;;;;;;;;;;;;;;8.71;100.00;101210.56;5016445;28;20415;-78
2022/12/25 09:50:04;;;;;;;;;;;;;;;8.71;100.00;101192.28;5035044;28;20053;-78
2022/12/25 09:52:36;;;;;;;;;;;;;;;8.72;100.00;101193.16;5036374;28;19943;-78
2022/12/25 09:55:18;;;;;;;;;;;;;;;8.71;100.00;101194.88;5019510;28;20152;-78
2022/12/25 09:57:44;;;;;;;;;;;;;;;8.71;100.00;101201.88;5016879;28;20209;-78
2022/12/25 10:00:17;;;;;;;;;;;;;;;8.71;100.00;101202.72;5047176;28;20254;-77
2022/12/25 10:03:08;;;;;;;;;;;;;;;8.71;100.00;101199.25;5056287;28;20204;-78
2022/12/25 10:05:42;;;;;;;;;;;;;;;8.72;100.00;101190.53;5008335;28;20110;-78
2022/12/25 10:08:10;;;;;;;;;;;;;;;8.71;100.00;101187.06;5021238;28;19917;-78
2022/12/25 10:10:39;;;;;;;;;;;;;;;8.71;100.00;101179.22;5027115;28;19928;-78
2022/12/25 10:13:04;;;;;;;;;;;;;;;8.72;100.00;101185.31;5016934;28;19917;-78
2022/12/25 10:15:35;;;;;;;;;;;;;;;8.72;100.00;101201.00;5016770;28;20156;-78
2022/12/25 10:18:14;;;;;;;;;;;;;;;8.72;100.00;101187.94;5016890;28;20273;-77
2022/12/25 10:20:39;;;;;;;;;;;;;;;8.73;100.00;101189.63;5032686;28;19917;-78
2022/12/25 10:23:10;;;;;;;;;;;;;;;8.72;100.00;101187.94;5036423;28;20204;-77
2022/12/25 10:25:37;;;;;;;;;;;;;;;8.73;100.00;101181.78;5036220;28;20014;-78
2022/12/25 10:28:04;;;;;;;;;;;;;;;8.72;100.00;101186.16;5037808;28;19964;-78
2022/12/25 10:30:30;;;;;;;;;;;;;;;8.71;100.00;101174.00;5035848;28;19921;-78
2022/12/25 10:32:56;;;;;;;;;;;;;;;8.71;100.00;101174.00;5040184;28;20008;-78
2022/12/25 10:35:23;;;;;;;;;;;;;;;8.71;100.00;101174.00;5039544;28;20213;-77
2022/12/25 10:37:54;;;;;;;;;;;;;;;8.72;100.00;101175.72;5039509;28;20204;-78
2022/12/25 10:40:22;;;;;;;;;;;;;;;8.72;100.00;101178.34;5035980;28;19967;-78
2022/12/25 10:42:48;;;;;;;;;;;;;;;8.72;100.00;101173.13;5026381;28;20438;-77
2022/12/25 10:45:14;;;;;;;;;;;;;;;8.72;100.00;101162.66;5020426;28;19921;-78
2022/12/25 10:47:41;;;;;;;;;;;;;;;8.73;100.00;101166.13;5019855;28;19957;-78
2022/12/25 10:50:24;;;;;;;;;;;;;;;8.72;100.00;101154.84;5023929;28;19921;-78
2022/12/25 10:52:54;;;;;;;;;;;;;;;8.72;100.00;101144.38;5039363;28;19940;-78
2022/12/25 10:55:20;;;;;;;;;;;;;;;8.73;100.00;101137.41;5034987;28;19920;-78
2022/12/25 10:57:45;;;;;;;;;;;;;;;8.73;100.00;101129.56;5020056;28;19921;-77
2022/12/25 11:00:21;;;;;;;;;;;;;;;8.74;100.00;101123.47;5040022;28;19952;-78
2022/12/25 11:02:47;;;;;;;;;;;;;;;8.73;100.00;101116.50;5039311;28;19924;-77
2022/12/25 11:05:19;;;;;;;;;;;;;;;8.73;100.00;101109.56;5039430;28;20116;-78
2022/12/25 11:07:50;;;;;;;;;;;;;;;8.73;100.00;101104.34;5039155;28;19948;-78
2022/12/25 11:10:15;;;;;;;;;;;;;;;8.73;100.00;101109.56;5038941;28;19917;-78
2022/12/25 11:12:41;;;;;;;;;;;;;;;8.74;100.00;101103.41;5019940;28;19940;-77
2022/12/25 11:15:25;;;;;;;;;;;;;;;8.74;100.00;101089.53;5019935;28;19917;-78
2022/12/25 11:17:51;;;;;;;;;;;;;;;8.74;100.00;101103.41;5019259;28;19955;-78
2022/12/25 11:20:18;;;;;;;;;;;;;;;8.73;100.00;101114.78;5028275;28;19929;-77
2022/12/25 11:22:44;;;;;;;;;;;;;;;8.74;100.00;101103.41;5035131;28;19927;-77
2022/12/25 11:25:11;;;;;;;;;;;;;;;8.74;100.00;101111.25;5039050;28;19917;-77
2022/12/25 11:27:36;;;;;;;;;;;;;;;8.74;100.00;101108.66;5027753;28;19984;-78
2022/12/25 11:30:02;;;;;;;;;;;;;;;8.75;100.00;101114.72;5043931;28;19921;-78
2022/12/25 11:32:42;;;;;;;;;;;;;;;8.74;100.00;101103.41;5028607;28;20232;-78
2022/12/25 11:35:15;;;;;;;;;;;;;;;8.76;100.00;101095.53;5027056;28;20120;-78
2022/12/25 11:37:43;;;;;;;;;;;;;;;8.74;100.00;101087.75;5024390;28;20184;-78
2022/12/25 11:40:16;;;;;;;;;;;;;;;8.75;100.00;101096.44;5027868;28;19945;-77
2022/12/25 11:42:54;;;;;;;;;;;;;;;8.75;100.00;101093.81;5026005;28;20092;-78
2022/12/25 11:45:23;;;;;;;;;;;;;;;8.76;100.00;101079.88;5023887;28;19945;-78
2022/12/25 11:48:12;;;;;;;;;;;;;;;8.76;100.00;101082.50;5019553;28;19980;-77
2022/12/25 11:50:40;;;;;;;;;;;;;;;8.75;100.00;101079.03;5021236;28;19925;-78
2022/12/25 11:53:13;;;;;;;;;;;;;;;8.76;100.00;101061.59;5025681;28;19917;-78
2022/12/25 11:55:40;;;;;;;;;;;;;;;8.77;100.00;101045.88;5017563;28;19917;-77
2022/12/25 11:58:13;;;;;;;;;;;;;;;8.78;100.00;101036.28;5018540;28;19932;-77
2022/12/25 12:00:40;;;;;;;;;;;;;;;8.78;100.00;101034.53;5048274;28;20253;-77
2022/12/25 12:03:12;;;;;;;;;;;;;;;8.79;100.00;101024.97;5045963;28;20023;-77
2022/12/25 12:05:43;;;;;;;;;;;;;;;8.79;100.00;101025.81;5036749;28;19974;-77
2022/12/25 12:08:08;;;;;;;;;;;;;;;8.79;100.00;101025.81;5027447;28;19987;-77
2022/12/25 12:10:48;;;;;;;;;;;;;;;8.80;100.00;101021.44;5016959;28;19968;-77
2022/12/25 12:13:26;;;;;;;;;;;;;;;8.80;100.00;101034.47;5025465;28;19921;-77
2022/12/25 12:15:52;;;;;;;;;;;;;;;8.80;100.00;101037.97;5036187;28;20248;-77
2022/12/25 12:18:21;;;;;;;;;;;;;;;8.80;100.00;101026.66;5027192;28;20221;-77
2022/12/25 12:21:25;;;;;;;;;;;;;;;8.80;100.00;101034.47;5016477;28;19987;-77
2022/12/25 12:23:58;;;;;;;;;;;;;;;8.80;100.00;101039.72;5000911;28;19932;-77
2022/12/25 12:26:25;;;;;;;;;;;;;;;8.80;100.00;101044.94;4994660;28;19925;-77
2022/12/25 12:28:53;;;;;;;;;;;;;;;8.80;100.00;101040.59;5016709;28;20242;-77
2022/12/25 12:31:18;;;;;;;;;;;;;;;8.81;100.00;101038.81;5055984;28;19940;-77
2022/12/25 12:33:54;;;;;;;;;;;;;;;8.80;100.00;101037.09;5046925;28;20232;-77
2022/12/25 12:36:21;;;;;;;;;;;;;;;8.80;100.00;101026.66;5036123;28;19924;-77
2022/12/25 12:38:48;;;;;;;;;;;;;;;8.80;100.00;101024.03;5020766;28;19932;-77
2022/12/25 12:41:15;;;;;;;;;;;;;;;8.80;100.00;101014.47;5024267;28;19940;-77
2022/12/25 12:43:51;;;;;;;;;;;;;;;8.82;100.00;101006.56;5023613;28;19921;-77
2022/12/25 12:46:22;;;;;;;;;;;;;;;8.81;100.00;101002.25;5026329;28;19952;-77
2022/12/25 12:48:49;;;;;;;;;;;;;;;8.81;100.00;100991.81;5024208;28;19950;-77
2022/12/25 12:51:31;;;;;;;;;;;;;;;8.81;100.00;100989.19;5024466;28;19924;-77
2022/12/25 12:54:19;;;;;;;;;;;;;;;8.80;100.00;100983.13;5021638;28;19926;-77
2022/12/25 12:57:04;;;;;;;;;;;;;;;8.80;100.00;100977.03;5020016;28;19921;-77
2022/12/25 12:59:35;;;;;;;;;;;;;;;8.81;100.00;100974.38;5024628;28;20023;-77
2022/12/25 13:02:17;;;;;;;;;;;;;;;8.82;100.00;100960.44;5019579;28;19918;-77
2022/12/25 13:04:49;;;;;;;;;;;;;;;8.82;100.00;100963.03;5024115;28;20208;-77
2022/12/25 13:07:34;;;;;;;;;;;;;;;8.82;100.00;100967.38;5027460;28;19928;-77
2022/12/25 13:10:18;;;;;;;;;;;;;;;8.81;100.00;100963.94;5017109;28;20337;-77
2022/12/25 13:12:43;;;;;;;;;;;;;;;8.81;100.00;100956.09;5020394;28;19921;-77
2022/12/25 13:15:12;;;;;;;;;;;;;;;8.81;100.00;100958.72;5024905;28;20019;-77
2022/12/25 13:17:41;;;;;;;;;;;;;;;8.82;100.00;100968.25;5025122;28;20116;-77
2022/12/25 13:20:16;;;;;;;;;;;;;;;8.80;100.00;100962.25;5021953;28;20256;-77
2022/12/25 13:22:41;;;;;;;;;;;;;;;8.83;100.00;100963.88;5024419;28;19917;-77
2022/12/25 13:25:16;;;;;;;;;;;;;;;8.81;100.00;100965.69;5014879;28;19937;-77
2022/12/25 13:27:41;;;;;;;;;;;;;;;8.82;100.00;100967.38;5023970;28;19925;-77
2022/12/25 13:30:13;;;;;;;;;;;;;;;8.82;100.00;100970.00;5026589;28;19921;-77
2022/12/25 13:32:39;;;;;;;;;;;;;;;8.81;100.00;100970.91;5022993;28;20212;-77
2022/12/25 13:35:10;;;;;;;;;;;;;;;8.81;100.00;100970.91;5025356;28;19988;-77
2022/12/25 13:37:35;;;;;;;;;;;;;;;8.81;100.00;100969.16;5023053;28;19924;-77
2022/12/25 13:40:04;;;;;;;;;;;;;;;8.81;100.00;100970.91;5022165;28;19925;-77
2022/12/25 13:42:35;;;;;;;;;;;;;;;8.81;100.00;100965.69;5026615;28;19960;-77
2022/12/25 13:45:05;;;;;;;;;;;;;;;8.82;100.00;100967.38;5014888;28;19956;-77
2022/12/25 13:47:34;;;;;;;;;;;;;;;8.80;100.00;100975.28;5021252;28;20105;-77
2022/12/25 13:50:11;;;;;;;;;;;;;;;8.81;100.00;100977.00;5014042;28;19963;-77
2022/12/25 13:52:37;;;;;;;;;;;;;;;8.81;100.00;100978.75;5014454;28;19925;-77
2022/12/25 13:55:15;;;;;;;;;;;;;;;8.81;100.00;100979.59;5020022;28;19924;-77
2022/12/25 13:57:43;;;;;;;;;;;;;;;8.81;100.00;100974.38;5024371;28;20283;-77
2022/12/25 14:00:16;;;;;;;;;;;;;;;8.81;100.00;100970.91;5039100;28;19960;-77
2022/12/25 14:02:42;;;;;;;;;;;;;;;8.80;100.00;100964.84;5018536;28;19917;-77
2022/12/25 14:05:24;;;;;;;;;;;;;;;8.80;100.00;100964.84;5018183;28;20004;-77
2022/12/25 14:07:53;;;;;;;;;;;;;;;8.81;100.00;100965.69;5030973;28;20125;-77
2022/12/25 14:10:19;;;;;;;;;;;;;;;8.80;100.00;100961.38;5023169;28;19968;-77
2022/12/25 14:12:48;;;;;;;;;;;;;;;8.80;100.00;100958.75;5031702;28;19928;-77
2022/12/25 14:15:16;;;;;;;;;;;;;;;8.80;100.00;100949.19;5024388;28;19918;-77
2022/12/25 14:17:42;;;;;;;;;;;;;;;8.80;100.00;100949.19;5030525;28;19921;-77
2022/12/25 14:20:20;;;;;;;;;;;;;;;8.80;100.00;100953.53;5038780;28;20296;-77
2022/12/25 14:22:49;;;;;;;;;;;;;;;8.80;100.00;100930.91;5023123;28;19921;-77
2022/12/25 14:25:15;;;;;;;;;;;;;;;8.80;100.00;100941.34;5017942;28;19979;-77
2022/12/25 14:27:46;;;;;;;;;;;;;;;8.80;100.00;100945.69;5016757;28;19922;-77